createdAt,value
2022-10-01T00:03:38.393Z,25.23
2022-10-01T00:06:10.471Z,22.08
2022-10-01T00:08:40.772Z,23.75
2022-10-01T00:11:12.583Z,27.15
2022-10-01T00:13:42.091Z,23.33
2022-10-01T00:16:12.802Z,20.98
2022-10-01T00:18:42.835Z,26.50
2022-10-01T00:21:13.242Z,22.50
2022-10-01T00:23:42.257Z,24.10
2022-10-01T00:28:42.822Z,26.00
2022-10-01T00:31:11.864Z,27.50
2022-10-01T00:36:10.009Z,25.45
2022-10-01T00:38:40.377Z,25.10
2022-10-01T00:41:09.841Z,28.25
2022-10-01T00:43:45.134Z,22.67
2022-10-01T00:46:19.177Z,31.08
2022-10-01T00:48:58.367Z,23.05
2022-10-01T00:51:29.908Z,22.48
2022-10-01T00:54:03.990Z,21.33
2022-10-01T00:56:34.294Z,24.92
2022-10-01T00:59:04.625Z,21.30
2022-10-01T01:01:37.741Z,22.77
2022-10-01T01:04:16.741Z,23.17
2022-10-01T01:06:47.617Z,22.00
2022-10-01T01:09:17.163Z,23.00
2022-10-01T01:11:52.807Z,24.50
2022-10-01T01:14:29.462Z,24.35
2022-10-01T01:17:02.717Z,22.00
2022-10-01T01:19:50.297Z,21.95
2022-10-01T01:22:23.916Z,23.40
2022-10-01T01:24:59.229Z,23.13
2022-10-01T01:27:33.783Z,21.42
2022-10-01T01:30:08.516Z,21.98
2022-10-01T01:32:47.929Z,22.13
2022-10-01T01:35:23.262Z,23.08
2022-10-01T01:37:56.258Z,21.85
2022-10-01T01:40:27.184Z,19.92
2022-10-01T01:42:57.585Z,19.80
2022-10-01T01:45:31.444Z,22.13
2022-10-01T01:48:02.640Z,20.33
2022-10-01T01:50:35.508Z,20.30
2022-10-01T01:53:04.087Z,20.48
2022-10-01T01:55:33.442Z,18.95
2022-10-01T01:58:02.601Z,19.35
2022-10-01T02:00:32.558Z,23.23
2022-10-01T02:03:01.378Z,24.38
2022-10-01T02:05:43.491Z,20.20
2022-10-01T02:08:29.239Z,18.08
2022-10-01T02:11:21.655Z,20.40
2022-10-01T02:14:03.219Z,17.33
2022-10-01T02:16:42.330Z,18.30
2022-10-01T02:21:56.902Z,18.80
2022-10-01T02:24:32.986Z,23.88
2022-10-01T02:27:04.942Z,16.98
2022-10-01T02:29:35.281Z,17.88
2022-10-01T02:32:05.425Z,18.40
2022-10-01T02:34:35.226Z,16.80
2022-10-01T02:37:07.635Z,18.92
2022-10-01T02:39:37.520Z,17.75
2022-10-01T02:42:07.981Z,20.58
2022-10-01T02:44:40.355Z,18.02
2022-10-01T02:47:15.902Z,17.17
2022-10-01T02:49:44.519Z,17.33
2022-10-01T02:52:23.666Z,16.42
2022-10-01T02:57:27.681Z,23.63
2022-10-01T02:59:59.875Z,18.55
2022-10-01T03:02:33.106Z,18.85
2022-10-01T03:05:02.136Z,17.20
2022-10-01T03:07:35.766Z,17.63
2022-10-01T03:10:04.846Z,15.27
2022-10-01T03:12:33.498Z,15.90
2022-10-01T03:15:02.752Z,17.85
2022-10-01T03:17:33.373Z,15.82
2022-10-01T03:20:02.154Z,19.27
2022-10-01T03:22:31.946Z,15.25
2022-10-01T03:25:01.069Z,14.68
2022-10-01T03:27:29.698Z,15.93
2022-10-01T03:29:58.281Z,16.35
2022-10-01T03:32:26.890Z,15.25
2022-10-01T03:34:56.985Z,15.80
2022-10-01T03:37:25.498Z,17.92
2022-10-01T03:39:54.162Z,15.85
2022-10-01T03:42:22.606Z,16.63
2022-10-01T03:44:51.063Z,15.93
2022-10-01T03:47:19.444Z,16.38
2022-10-01T03:49:48.065Z,14.38
2022-10-01T03:52:18.006Z,16.45
2022-10-01T03:54:46.463Z,17.70
2022-10-01T03:57:15.107Z,15.48
2022-10-01T03:59:43.578Z,14.15
2022-10-01T04:02:12.175Z,15.13
2022-10-01T04:04:40.791Z,16.65
2022-10-01T04:07:09.424Z,13.55
2022-10-01T04:09:39.386Z,17.08
2022-10-01T04:12:08.034Z,17.00
2022-10-01T04:14:36.439Z,15.40
2022-10-01T04:17:04.868Z,21.15
2022-10-01T04:19:33.269Z,19.17
2022-10-01T04:22:01.750Z,22.42
2022-10-01T04:24:30.238Z,15.43
2022-10-01T04:27:00.035Z,21.98
2022-10-01T04:29:28.487Z,18.08
2022-10-01T04:31:58.383Z,16.13
2022-10-01T04:34:47.577Z,19.52
2022-10-01T04:37:16.098Z,16.70
2022-10-01T04:39:44.625Z,14.75
2022-10-01T04:42:15.201Z,19.60
2022-10-01T04:44:43.736Z,14.73
2022-10-01T04:47:12.169Z,18.67
2022-10-01T04:49:40.671Z,14.95
2022-10-01T04:52:09.453Z,18.35
2022-10-01T04:54:37.905Z,16.20
2022-10-01T04:57:06.393Z,15.52
2022-10-01T04:59:36.310Z,17.60
2022-10-01T05:02:04.801Z,15.32
2022-10-01T05:04:33.330Z,19.67
2022-10-01T05:07:01.836Z,16.02
2022-10-01T05:09:30.269Z,13.50
2022-10-01T05:11:58.867Z,18.90
2022-10-01T05:14:27.378Z,15.35
2022-10-01T05:16:57.260Z,21.17
2022-10-01T05:19:29.156Z,15.20
2022-10-01T05:21:57.769Z,15.80
2022-10-01T05:24:26.528Z,16.75
2022-10-01T05:26:55.306Z,16.77
2022-10-01T05:29:23.724Z,17.52
2022-10-01T05:31:52.407Z,18.90
2022-10-01T05:34:22.485Z,17.40
2022-10-01T05:36:50.909Z,16.55
2022-10-01T05:39:19.482Z,16.33
2022-10-01T05:41:48.224Z,15.77
2022-10-01T05:44:16.771Z,16.48
2022-10-01T05:46:45.211Z,17.23
2022-10-01T05:49:13.773Z,17.73
2022-10-01T05:51:43.732Z,24.25
2022-10-01T05:54:12.680Z,24.77
2022-10-01T05:56:41.192Z,20.52
2022-10-01T05:59:09.722Z,22.25
2022-10-01T06:01:38.226Z,21.45
2022-10-01T06:04:06.774Z,25.13
2022-10-01T06:06:35.303Z,20.85
2022-10-01T06:09:05.376Z,22.08
2022-10-01T06:11:37.434Z,22.73
2022-10-01T06:14:06.328Z,22.13
2022-10-01T06:16:34.885Z,23.83
2022-10-01T06:19:03.872Z,21.13
2022-10-01T06:21:32.963Z,18.02
2022-10-01T06:26:31.444Z,23.08
2022-10-01T06:29:00.066Z,25.05
2022-10-01T06:31:28.563Z,23.75
2022-10-01T06:33:57.102Z,25.23
2022-10-01T06:36:25.644Z,27.15
2022-10-01T06:38:54.188Z,23.02
2022-10-01T06:41:22.710Z,26.42
2022-10-01T06:43:52.608Z,18.75
2022-10-01T06:46:21.280Z,24.45
2022-10-01T06:48:49.994Z,22.58
2022-10-01T06:51:39.044Z,24.42
2022-10-01T06:56:36.580Z,25.73
2022-10-01T06:59:06.537Z,20.45
2022-10-01T07:01:36.878Z,23.55
2022-10-01T07:04:05.830Z,26.52
2022-10-01T07:06:34.290Z,24.98
2022-10-01T07:09:02.801Z,23.88
2022-10-01T07:11:32.997Z,21.48
2022-10-01T07:14:01.662Z,17.02
2022-10-01T07:16:31.623Z,22.95
2022-10-01T07:19:00.198Z,22.58
2022-10-01T07:21:28.609Z,19.05
2022-10-01T07:23:57.032Z,22.35
2022-10-01T07:26:25.500Z,21.40
2022-10-01T07:28:55.279Z,16.98
2022-10-01T07:31:24.345Z,24.42
2022-10-01T07:36:27.808Z,20.27
2022-10-01T07:38:56.361Z,17.98
2022-10-01T07:41:25.117Z,17.67
2022-10-01T07:43:53.585Z,18.88
2022-10-01T07:46:22.057Z,19.02
2022-10-01T07:48:51.088Z,16.58
2022-10-01T07:51:21.098Z,18.73
2022-10-01T07:53:51.048Z,14.38
2022-10-01T07:56:19.892Z,16.75
2022-10-01T07:58:48.500Z,17.95
2022-10-01T08:01:17.359Z,14.13
2022-10-01T08:03:45.843Z,17.20
2022-10-01T08:06:15.234Z,16.50
2022-10-01T08:08:45.496Z,17.35
2022-10-01T08:11:17.760Z,18.38
2022-10-01T08:13:46.950Z,13.65
2022-10-01T08:18:44.031Z,18.42
2022-10-01T08:21:12.574Z,18.33
2022-10-01T08:23:41.079Z,13.48
2022-10-01T08:26:11.796Z,15.95
2022-10-01T08:28:41.102Z,14.82
2022-10-01T08:31:10.088Z,18.88
2022-10-01T08:33:40.051Z,15.40
2022-10-01T08:36:09.287Z,17.58
2022-10-01T08:41:23.194Z,14.60
2022-10-01T08:43:54.209Z,19.13
2022-10-01T08:46:26.215Z,14.80
2022-10-01T08:49:03.799Z,14.00
2022-10-01T08:51:40.250Z,13.57
2022-10-01T08:54:17.203Z,15.05
2022-10-01T08:56:48.479Z,14.38
2022-10-01T08:59:30.953Z,11.68
2022-10-01T09:02:00.348Z,15.50
2022-10-01T09:04:30.473Z,12.65
2022-10-01T09:07:06.396Z,12.05
2022-10-01T09:09:45.405Z,13.75
2022-10-01T09:12:26.484Z,13.88
2022-10-01T09:15:21.404Z,12.30
2022-10-01T09:18:02.880Z,16.05
2022-10-01T09:20:37.570Z,12.70
2022-10-01T09:23:19.746Z,14.00
2022-10-01T09:25:51.547Z,13.95
2022-10-01T09:28:23.632Z,11.90
2022-10-01T09:30:56.956Z,11.63
2022-10-01T09:33:31.019Z,11.93
2022-10-01T09:36:09.121Z,11.35
2022-10-01T09:38:41.581Z,15.30
2022-10-01T09:41:11.867Z,12.60
2022-10-01T09:43:45.181Z,11.27
2022-10-01T09:46:17.682Z,14.68
2022-10-01T09:48:56.618Z,11.85
2022-10-01T09:51:34.822Z,18.33
2022-10-01T09:54:13.100Z,24.00
2022-10-01T09:56:48.125Z,37.95
2022-10-01T09:59:22.701Z,58.17
2022-10-01T10:01:54.641Z,104.63
2022-10-01T10:04:24.568Z,139.35
2022-10-01T10:07:00.241Z,204.90
2022-10-01T10:09:32.042Z,344.38
2022-10-01T10:12:01.532Z,534.17
2022-10-01T10:14:35.138Z,497.40
2022-10-01T10:17:08.663Z,536.85
2022-10-01T10:19:38.733Z,570.47
2022-10-01T10:22:19.671Z,618.42
2022-10-01T10:24:48.259Z,625.20
2022-10-01T10:27:25.337Z,629.17
2022-10-01T10:30:06.621Z,618.70
2022-10-01T10:32:35.202Z,625.85
2022-10-01T10:35:10.794Z,603.05
2022-10-01T10:37:46.275Z,596.00
2022-10-01T10:40:20.251Z,592.63
2022-10-01T10:42:50.863Z,582.20
2022-10-01T10:45:23.883Z,573.05
2022-10-01T10:47:53.980Z,568.83
2022-10-01T10:50:31.167Z,558.28
2022-10-01T10:53:00.272Z,542.67
2022-10-01T10:55:31.648Z,535.65
2022-10-01T10:58:12.157Z,536.42
2022-10-01T11:00:50.648Z,511.02
2022-10-01T11:03:23.792Z,502.60
2022-10-01T11:05:52.394Z,507.60
2022-10-01T11:08:25.152Z,492.98
2022-10-01T11:11:07.727Z,467.77
2022-10-01T11:13:51.923Z,478.00
2022-10-01T11:16:35.974Z,459.45
2022-10-01T11:19:16.369Z,440.90
2022-10-01T11:22:05.734Z,425.55
2022-10-01T11:25:01.123Z,414.08
2022-10-01T11:27:40.371Z,393.20
2022-10-01T11:30:15.124Z,400.17
2022-10-01T11:32:51.325Z,379.10
2022-10-01T11:35:34.575Z,376.67
2022-10-01T11:38:41.450Z,357.38
2022-10-01T11:41:21.841Z,352.15
2022-10-01T11:43:54.428Z,337.80
2022-10-01T11:46:49.691Z,336.85
2022-10-01T11:49:43.123Z,320.13
2022-10-01T11:52:22.179Z,327.80
2022-10-01T11:58:14.109Z,284.88
2022-10-01T12:00:45.515Z,287.17
2022-10-01T12:03:21.773Z,278.85
2022-10-01T12:05:53.367Z,287.90
2022-10-01T12:08:27.621Z,269.23
2022-10-01T12:11:02.267Z,254.88
2022-10-01T12:13:34.429Z,260.75
2022-10-01T12:16:11.080Z,242.63
2022-10-01T12:18:51.293Z,228.05
2022-10-01T12:21:27.241Z,230.77
2022-10-01T12:24:00.771Z,236.48
2022-10-01T12:26:40.484Z,230.20
2022-10-01T12:29:17.560Z,217.27
2022-10-01T12:31:58.157Z,218.98
2022-10-01T12:34:38.261Z,203.10
2022-10-01T12:37:21.977Z,218.63
2022-10-01T12:40:10.284Z,198.32
2022-10-01T12:43:33.904Z,202.55
2022-10-01T12:46:09.570Z,189.25
2022-10-01T12:48:47.780Z,186.80
2022-10-01T12:51:36.279Z,184.00
2022-10-01T12:54:21.246Z,179.88
2022-10-01T12:56:58.647Z,182.40
2022-10-01T12:59:48.395Z,169.48
2022-10-01T13:02:35.084Z,185.50
2022-10-01T13:05:20.419Z,162.70
2022-10-01T13:08:09.338Z,156.82
2022-10-01T13:10:54.425Z,148.70
2022-10-01T13:13:26.786Z,155.88
2022-10-01T13:16:04.068Z,158.02
2022-10-01T13:18:41.095Z,157.27
2022-10-01T13:21:17.880Z,145.43
2022-10-01T13:23:52.286Z,145.15
2022-10-01T13:26:30.755Z,143.98
2022-10-01T13:29:12.514Z,146.18
2022-10-01T13:31:53.118Z,136.73
2022-10-01T13:34:29.231Z,131.05
2022-10-01T13:36:57.766Z,131.85
2022-10-01T13:39:28.965Z,140.13
2022-10-01T13:42:00.091Z,131.27
2022-10-01T13:44:34.885Z,137.55
2022-10-01T13:47:07.268Z,126.22
2022-10-01T13:49:38.369Z,122.18
2022-10-01T13:52:07.264Z,125.57
2022-10-01T13:54:40.374Z,113.82
2022-10-01T13:57:11.466Z,130.75
2022-10-01T13:59:40.177Z,141.27
2022-10-01T14:02:33.163Z,131.38
2022-10-01T14:05:23.387Z,130.02
2022-10-01T14:07:57.810Z,137.40
2022-10-01T14:11:01.643Z,126.22
2022-10-01T14:13:50.065Z,116.95
2022-10-01T14:16:19.208Z,110.78
2022-10-01T14:21:45.582Z,116.85
2022-10-01T14:24:25.810Z,103.57
2022-10-01T14:26:57.681Z,99.40
2022-10-01T14:29:45.577Z,94.38
2022-10-01T14:32:25.916Z,87.95
2022-10-01T14:35:26.785Z,83.20
2022-10-01T14:38:01.514Z,84.35
2022-10-01T14:40:38.935Z,80.90
2022-10-01T14:43:17.797Z,73.72
2022-10-01T14:46:00.168Z,78.07
2022-10-01T14:48:30.876Z,68.05
2022-10-01T14:51:02.008Z,67.53
2022-10-01T14:53:33.574Z,67.63
2022-10-01T14:56:06.694Z,64.93
2022-10-01T14:58:39.468Z,61.85
2022-10-01T15:01:18.352Z,59.85
2022-10-01T15:03:47.489Z,59.78
2022-10-01T15:08:47.929Z,64.32
2022-10-01T15:11:19.854Z,61.35
2022-10-01T15:13:51.085Z,54.97
2022-10-01T15:16:23.676Z,63.97
2022-10-01T15:18:55.053Z,53.67
2022-10-01T15:21:28.306Z,63.50
2022-10-01T15:23:58.067Z,55.78
2022-10-01T15:26:29.934Z,58.45
2022-10-01T15:29:05.956Z,49.55
2022-10-01T15:31:36.272Z,50.28
2022-10-01T15:34:07.128Z,55.13
2022-10-01T15:36:37.098Z,52.47
2022-10-01T15:39:25.302Z,53.97
2022-10-01T15:41:54.973Z,49.45
2022-10-01T15:44:42.838Z,49.00
2022-10-01T15:47:33.241Z,49.75
2022-10-01T15:50:14.585Z,48.83
2022-10-01T15:52:53.433Z,50.45
2022-10-01T15:55:28.633Z,50.78
2022-10-01T15:58:04.627Z,48.60
2022-10-01T16:00:40.674Z,53.65
2022-10-01T16:03:19.827Z,49.03
2022-10-01T16:08:21.988Z,46.00
2022-10-01T16:11:09.948Z,53.28
2022-10-01T16:13:40.382Z,48.55
2022-10-01T16:16:19.977Z,47.55
2022-10-01T16:18:54.267Z,47.08
2022-10-01T16:21:23.393Z,43.85
2022-10-01T16:23:57.138Z,53.00
2022-10-01T16:26:37.950Z,51.15
2022-10-01T16:29:23.488Z,42.72
2022-10-01T16:31:52.513Z,40.65
2022-10-01T16:34:22.560Z,43.80
2022-10-01T16:36:51.631Z,44.30
2022-10-01T16:39:20.031Z,43.03
2022-10-01T16:42:06.206Z,51.08
2022-10-01T16:44:41.233Z,44.00
2022-10-01T16:47:12.750Z,46.30
2022-10-01T16:49:42.738Z,40.05
2022-10-01T16:52:16.703Z,41.33
2022-10-01T16:54:47.548Z,42.10
2022-10-01T16:57:17.734Z,42.95
2022-10-01T16:59:46.182Z,38.85
2022-10-01T17:02:16.101Z,38.13
2022-10-01T17:04:46.154Z,34.90
2022-10-01T17:07:14.603Z,49.35
2022-10-01T17:09:43.046Z,41.15
2022-10-01T17:12:11.539Z,54.88
2022-10-01T17:14:40.494Z,48.72
2022-10-01T17:17:08.936Z,40.67
2022-10-01T17:19:37.418Z,39.00
2022-10-01T17:22:07.281Z,42.42
2022-10-01T17:24:35.894Z,41.03
2022-10-01T17:27:04.337Z,43.65
2022-10-01T17:29:33.616Z,39.80
2022-10-01T17:32:02.225Z,37.90
2022-10-01T17:34:30.802Z,45.55
2022-10-01T17:37:00.224Z,38.70
2022-10-01T17:39:32.956Z,38.03
2022-10-01T17:42:01.447Z,46.92
2022-10-01T17:44:29.967Z,43.55
2022-10-01T17:46:58.508Z,41.45
2022-10-01T17:49:27.020Z,48.92
2022-10-01T17:51:55.505Z,41.55
2022-10-01T17:54:23.923Z,45.50
2022-10-01T17:56:56.119Z,46.25
2022-10-01T17:59:24.610Z,44.15
2022-10-01T18:01:53.721Z,39.75
2022-10-01T18:04:22.314Z,46.00
2022-10-01T18:06:52.339Z,42.45
2022-10-01T18:09:21.078Z,40.78
2022-10-01T18:11:49.888Z,37.53
2022-10-01T18:14:19.847Z,45.53
2022-10-01T18:16:48.456Z,43.42
2022-10-01T18:19:53.030Z,45.03
2022-10-01T18:22:13.575Z,41.85
2022-10-01T18:24:42.601Z,41.45
2022-10-01T18:27:11.070Z,39.83
2022-10-01T18:29:41.562Z,39.53
2022-10-01T18:32:17.202Z,40.30
2022-10-01T18:34:51.068Z,39.40
2022-10-01T18:37:29.826Z,38.47
2022-10-01T18:40:04.611Z,36.33
2022-10-01T18:42:42.827Z,37.17
2022-10-01T18:45:18.199Z,37.10
2022-10-01T18:48:00.575Z,38.42
2022-10-01T18:50:38.011Z,35.38
2022-10-01T18:53:25.403Z,35.13
2022-10-01T18:56:20.342Z,37.35
2022-10-01T18:59:16.395Z,38.28
2022-10-01T19:01:56.878Z,35.88
2022-10-01T19:04:55.367Z,29.85
2022-10-01T19:07:39.602Z,35.45
2022-10-01T19:10:17.261Z,34.20
2022-10-01T19:12:55.774Z,28.08
2022-10-01T19:15:37.268Z,32.50
2022-10-01T19:18:33.063Z,35.28
2022-10-01T19:21:13.810Z,34.83
2022-10-01T19:24:01.266Z,33.58
2022-10-01T19:26:35.313Z,32.05
2022-10-01T19:29:20.203Z,30.60
2022-10-01T19:31:54.120Z,28.58
2022-10-01T19:34:29.758Z,26.67
2022-10-01T19:37:03.074Z,28.40
2022-10-01T19:39:36.538Z,28.70
2022-10-01T19:42:11.938Z,31.17
2022-10-01T19:44:47.842Z,31.23
2022-10-01T19:47:25.175Z,30.45
2022-10-01T19:49:58.984Z,24.92
2022-10-01T19:52:31.797Z,27.30
2022-10-01T19:55:00.924Z,25.83
2022-10-01T19:57:31.571Z,26.30
2022-10-01T20:00:04.522Z,24.10
2022-10-01T20:02:35.388Z,28.30
2022-10-01T20:05:08.230Z,27.95
2022-10-01T20:07:47.022Z,29.67
2022-10-01T20:10:21.866Z,24.38
2022-10-01T20:13:01.565Z,24.45
2022-10-01T20:15:42.130Z,24.35
2022-10-01T20:18:28.026Z,24.63
2022-10-01T20:21:21.751Z,29.38
2022-10-01T20:23:57.084Z,27.10
2022-10-01T20:26:34.545Z,24.08
2022-10-01T20:29:15.361Z,23.98
2022-10-01T20:31:53.976Z,23.40
2022-10-01T20:34:32.185Z,26.10
2022-10-01T20:37:15.799Z,24.98
2022-10-01T20:39:50.844Z,22.15
2022-10-01T20:42:25.283Z,24.58
2022-10-01T20:44:54.977Z,21.00
2022-10-01T20:47:29.024Z,20.95
2022-10-01T20:50:09.152Z,21.52
2022-10-01T20:52:48.793Z,25.23
2022-10-01T20:57:52.802Z,22.10
2022-10-01T21:00:23.520Z,22.40
2022-10-01T21:02:56.539Z,19.52
2022-10-01T21:05:29.997Z,22.80
2022-10-01T21:08:04.506Z,24.85
2022-10-01T21:10:40.928Z,19.88
2022-10-01T21:13:16.215Z,23.92
2022-10-01T21:15:56.054Z,25.75
2022-10-01T21:18:38.692Z,25.73
2022-10-01T21:21:19.873Z,22.38
2022-10-01T21:24:01.185Z,22.38
2022-10-01T21:26:43.399Z,22.42
2022-10-01T21:29:30.455Z,25.95
2022-10-01T21:32:12.915Z,27.52
2022-10-01T21:34:57.032Z,26.58
2022-10-01T21:37:32.115Z,25.67
2022-10-01T21:40:12.517Z,25.70
2022-10-01T21:42:53.597Z,24.83
2022-10-01T21:45:29.022Z,25.98
2022-10-01T21:48:13.617Z,23.85
2022-10-01T21:50:53.045Z,22.90
2022-10-01T21:53:56.119Z,22.85
2022-10-01T21:56:42.015Z,24.63
2022-10-01T21:59:22.846Z,24.83
2022-10-01T22:02:05.287Z,26.42
2022-10-01T22:04:40.478Z,26.90
2022-10-01T22:07:19.038Z,24.92
2022-10-01T22:10:01.777Z,23.15
2022-10-01T22:12:37.449Z,26.58
2022-10-01T22:15:16.962Z,27.83
2022-10-01T22:17:47.466Z,24.33
2022-10-01T22:20:18.177Z,24.77
2022-10-01T22:22:49.359Z,24.13
2022-10-01T22:25:17.993Z,26.23
2022-10-01T22:27:52.874Z,26.20
2022-10-01T22:30:23.237Z,24.63
2022-10-01T22:32:57.960Z,24.08
2022-10-01T22:35:32.268Z,25.70
2022-10-01T22:38:11.415Z,26.92
2022-10-01T22:40:45.534Z,26.02
2022-10-01T22:43:15.606Z,22.42
2022-10-01T22:46:02.712Z,25.55
2022-10-01T22:48:47.360Z,28.33
2022-10-01T22:51:29.555Z,26.65
2022-10-01T22:54:23.984Z,27.35
2022-10-01T22:57:01.167Z,25.55
2022-10-01T22:59:41.134Z,28.42
2022-10-01T23:02:18.544Z,30.02
2022-10-01T23:04:59.955Z,28.77
2022-10-01T23:07:42.298Z,27.73
2022-10-01T23:10:15.422Z,28.15
